sensor_id;sensor_type;location;lat;lon;timestamp;P1;durP1;ratioP1;P2;durP2;ratioP2
13797;SDS011;6970;51.340;3.240;2023-03-01T00:01:07;7.37;;;4.67;;
13797;SDS011;6970;51.340;3.240;2023-03-01T00:03:37;4.80;;;4.40;;
13797;SDS011;6970;51.340;3.240;2023-03-01T00:06:05;6.07;;;4.90;;
13797;SDS011;6970;51.340;3.240;2023-03-01T00:08:32;5.47;;;4.20;;
13797;SDS011;6970;51.340;3.240;2023-03-01T00:11:04;6.10;;;5.40;;
13797;SDS011;6970;51.340;3.240;2023-03-01T00:13:52;6.17;;;4.57;;
13797;SDS011;6970;51.340;3.240;2023-03-01T00:16:25;6.17;;;5.13;;
13797;SDS011;6970;51.340;3.240;2023-03-01T00:18:59;6.20;;;5.67;;
13797;SDS011;6970;51.340;3.240;2023-03-01T00:21:26;7.63;;;6.57;;
13797;SDS011;6970;51.340;3.240;2023-03-01T00:23:54;6.63;;;5.97;;
13797;SDS011;6970;51.340;3.240;2023-03-01T00:26:23;6.20;;;5.60;;
13797;SDS011;6970;51.340;3.240;2023-03-01T00:28:51;7.67;;;7.03;;
13797;SDS011;6970;51.340;3.240;2023-03-01T00:31:20;7.40;;;6.77;;
13797;SDS011;6970;51.340;3.240;2023-03-01T00:33:50;7.43;;;6.80;;
13797;SDS011;6970;51.340;3.240;2023-03-01T00:36:25;8.60;;;7.80;;
13797;SDS011;6970;51.340;3.240;2023-03-01T00:38:56;7.47;;;6.87;;
13797;SDS011;6970;51.340;3.240;2023-03-01T00:41:23;8.23;;;7.53;;
13797;SDS011;6970;51.340;3.240;2023-03-01T00:43:53;13.13;;;8.20;;
13797;SDS011;6970;51.340;3.240;2023-03-01T00:46:25;9.07;;;8.27;;
13797;SDS011;6970;51.340;3.240;2023-03-01T00:48:53;7.97;;;7.33;;
13797;SDS011;6970;51.340;3.240;2023-03-01T00:51:29;9.30;;;7.60;;
13797;SDS011;6970;51.340;3.240;2023-03-01T00:53:59;8.87;;;7.53;;
13797;SDS011;6970;51.340;3.240;2023-03-01T00:56:27;10.50;;;8.33;;
13797;SDS011;6970;51.340;3.240;2023-03-01T00:58:55;8.33;;;7.53;;
13797;SDS011;6970;51.340;3.240;2023-03-01T01:01:24;8.07;;;7.37;;
13797;SDS011;6970;51.340;3.240;2023-03-01T01:06:25;9.67;;;8.33;;
13797;SDS011;6970;51.340;3.240;2023-03-01T01:08:54;9.60;;;7.87;;
13797;SDS011;6970;51.340;3.240;2023-03-01T01:11:22;9.53;;;8.40;;
13797;SDS011;6970;51.340;3.240;2023-03-01T01:13:53;9.97;;;7.50;;
13797;SDS011;6970;51.340;3.240;2023-03-01T01:16:21;9.07;;;8.17;;
13797;SDS011;6970;51.340;3.240;2023-03-01T01:18:50;10.67;;;7.70;;
13797;SDS011;6970;51.340;3.240;2023-03-01T01:21:18;8.10;;;7.30;;
13797;SDS011;6970;51.340;3.240;2023-03-01T01:23:47;10.60;;;7.27;;
13797;SDS011;6970;51.340;3.240;2023-03-01T01:26:22;9.03;;;7.57;;
13797;SDS011;6970;51.340;3.240;2023-03-01T01:28:51;9.13;;;8.27;;
13797;SDS011;6970;51.340;3.240;2023-03-01T01:31:19;10.67;;;8.23;;
13797;SDS011;6970;51.340;3.240;2023-03-01T01:33:46;11.60;;;8.30;;
13797;SDS011;6970;51.340;3.240;2023-03-01T01:36:13;8.90;;;8.03;;
13797;SDS011;6970;51.340;3.240;2023-03-01T01:38:40;10.33;;;7.70;;
13797;SDS011;6970;51.340;3.240;2023-03-01T01:41:09;8.63;;;7.07;;
13797;SDS011;6970;51.340;3.240;2023-03-01T01:43:42;8.20;;;7.10;;
13797;SDS011;6970;51.340;3.240;2023-03-01T01:49:01;8.43;;;7.63;;
13797;SDS011;6970;51.340;3.240;2023-03-01T01:51:40;9.33;;;7.70;;
13797;SDS011;6970;51.340;3.240;2023-03-01T01:54:15;8.53;;;7.40;;
13797;SDS011;6970;51.340;3.240;2023-03-01T01:56:58;8.23;;;7.47;;
13797;SDS011;6970;51.340;3.240;2023-03-01T01:59:28;13.17;;;7.90;;
13797;SDS011;6970;51.340;3.240;2023-03-01T02:01:57;8.70;;;7.87;;
13797;SDS011;6970;51.340;3.240;2023-03-01T02:04:28;9.57;;;7.63;;
13797;SDS011;6970;51.340;3.240;2023-03-01T02:07:02;8.03;;;7.33;;
13797;SDS011;6970;51.340;3.240;2023-03-01T02:09:34;9.00;;;8.03;;
13797;SDS011;6970;51.340;3.240;2023-03-01T02:12:02;9.97;;;8.60;;
13797;SDS011;6970;51.340;3.240;2023-03-01T02:14:31;10.37;;;8.73;;
13797;SDS011;6970;51.340;3.240;2023-03-01T02:16:57;12.77;;;9.33;;
13797;SDS011;6970;51.340;3.240;2023-03-01T02:19:38;10.60;;;8.43;;
13797;SDS011;6970;51.340;3.240;2023-03-01T02:22:30;9.00;;;8.20;;
13797;SDS011;6970;51.340;3.240;2023-03-01T02:28:07;10.53;;;8.87;;
13797;SDS011;6970;51.340;3.240;2023-03-01T02:30:44;12.10;;;9.00;;
13797;SDS011;6970;51.340;3.240;2023-03-01T02:33:33;8.53;;;7.67;;
13797;SDS011;6970;51.340;3.240;2023-03-01T02:36:14;8.60;;;7.80;;
13797;SDS011;6970;51.340;3.240;2023-03-01T02:38:43;9.43;;;8.47;;
13797;SDS011;6970;51.340;3.240;2023-03-01T02:41:11;9.33;;;8.50;;
13797;SDS011;6970;51.340;3.240;2023-03-01T02:43:41;12.13;;;8.20;;
13797;SDS011;6970;51.340;3.240;2023-03-01T02:46:14;9.70;;;8.80;;
13797;SDS011;6970;51.340;3.240;2023-03-01T02:48:53;9.30;;;8.40;;
13797;SDS011;6970;51.340;3.240;2023-03-01T02:56:57;11.33;;;8.70;;
13797;SDS011;6970;51.340;3.240;2023-03-01T02:59:27;9.70;;;7.97;;
13797;SDS011;6970;51.340;3.240;2023-03-01T03:01:57;8.13;;;7.33;;
13797;SDS011;6970;51.340;3.240;2023-03-01T03:04:26;9.07;;;7.70;;
13797;SDS011;6970;51.340;3.240;2023-03-01T03:06:53;8.33;;;7.63;;
13797;SDS011;6970;51.340;3.240;2023-03-01T03:09:20;8.90;;;7.83;;
13797;SDS011;6970;51.340;3.240;2023-03-01T03:11:47;7.57;;;6.77;;
13797;SDS011;6970;51.340;3.240;2023-03-01T03:14:15;8.30;;;6.57;;
13797;SDS011;6970;51.340;3.240;2023-03-01T03:16:44;8.43;;;7.63;;
13797;SDS011;6970;51.340;3.240;2023-03-01T03:19:14;7.87;;;7.07;;
13797;SDS011;6970;51.340;3.240;2023-03-01T03:21:42;11.80;;;7.93;;
13797;SDS011;6970;51.340;3.240;2023-03-01T03:24:10;8.53;;;7.63;;
13797;SDS011;6970;51.340;3.240;2023-03-01T03:26:37;8.77;;;7.00;;
13797;SDS011;6970;51.340;3.240;2023-03-01T03:29:04;7.23;;;6.30;;
13797;SDS011;6970;51.340;3.240;2023-03-01T03:31:31;7.20;;;6.50;;
13797;SDS011;6970;51.340;3.240;2023-03-01T03:33:58;7.77;;;7.07;;
13797;SDS011;6970;51.340;3.240;2023-03-01T03:36:25;7.40;;;6.37;;
13797;SDS011;6970;51.340;3.240;2023-03-01T03:38:52;7.10;;;6.40;;
13797;SDS011;6970;51.340;3.240;2023-03-01T03:41:19;7.60;;;6.90;;
13797;SDS011;6970;51.340;3.240;2023-03-01T03:43:46;9.67;;;6.97;;
13797;SDS011;6970;51.340;3.240;2023-03-01T03:46:15;7.93;;;7.13;;
13797;SDS011;6970;51.340;3.240;2023-03-01T03:48:43;8.73;;;7.83;;
13797;SDS011;6970;51.340;3.240;2023-03-01T03:51:12;9.20;;;8.23;;
13797;SDS011;6970;51.340;3.240;2023-03-01T03:53:41;9.17;;;8.23;;
13797;SDS011;6970;51.340;3.240;2023-03-01T03:56:08;9.70;;;8.73;;
13797;SDS011;6970;51.340;3.240;2023-03-01T03:58:37;10.07;;;9.07;;
13797;SDS011;6970;51.340;3.240;2023-03-01T04:01:04;9.23;;;8.43;;
13797;SDS011;6970;51.340;3.240;2023-03-01T04:03:33;9.97;;;9.00;;
13797;SDS011;6970;51.340;3.240;2023-03-01T04:06:01;11.43;;;9.33;;
13797;SDS011;6970;51.340;3.240;2023-03-01T04:08:28;8.97;;;8.03;;
13797;SDS011;6970;51.340;3.240;2023-03-01T04:11:02;9.60;;;8.70;;
13797;SDS011;6970;51.340;3.240;2023-03-01T04:13:51;8.27;;;7.40;;
13797;SDS011;6970;51.340;3.240;2023-03-01T04:16:20;8.00;;;7.10;;
13797;SDS011;6970;51.340;3.240;2023-03-01T04:18:47;8.17;;;7.37;;
13797;SDS011;6970;51.340;3.240;2023-03-01T04:21:15;7.30;;;6.70;;
13797;SDS011;6970;51.340;3.240;2023-03-01T04:23:42;9.53;;;7.20;;
13797;SDS011;6970;51.340;3.240;2023-03-01T04:26:09;8.53;;;7.30;;
13797;SDS011;6970;51.340;3.240;2023-03-01T04:28:37;7.10;;;6.40;;
13797;SDS011;6970;51.340;3.240;2023-03-01T04:31:08;7.37;;;6.77;;
13797;SDS011;6970;51.340;3.240;2023-03-01T04:33:45;6.80;;;6.20;;
13797;SDS011;6970;51.340;3.240;2023-03-01T04:36:24;9.03;;;6.43;;
13797;SDS011;6970;51.340;3.240;2023-03-01T04:38:52;8.13;;;6.43;;
13797;SDS011;6970;51.340;3.240;2023-03-01T04:41:20;8.67;;;6.77;;
13797;SDS011;6970;51.340;3.240;2023-03-01T04:43:49;7.13;;;6.43;;
13797;SDS011;6970;51.340;3.240;2023-03-01T04:46:17;7.40;;;5.80;;
13797;SDS011;6970;51.340;3.240;2023-03-01T04:48:46;7.30;;;6.50;;
13797;SDS011;6970;51.340;3.240;2023-03-01T04:51:14;7.30;;;6.60;;
13797;SDS011;6970;51.340;3.240;2023-03-01T04:53:42;7.13;;;6.47;;
13797;SDS011;6970;51.340;3.240;2023-03-01T04:56:09;7.63;;;5.70;;
13797;SDS011;6970;51.340;3.240;2023-03-01T04:58:36;7.13;;;5.87;;
13797;SDS011;6970;51.340;3.240;2023-03-01T05:01:15;5.90;;;5.37;;
13797;SDS011;6970;51.340;3.240;2023-03-01T05:03:44;6.07;;;5.47;;
13797;SDS011;6970;51.340;3.240;2023-03-01T05:06:13;6.83;;;5.73;;
13797;SDS011;6970;51.340;3.240;2023-03-01T05:08:41;7.03;;;6.10;;
13797;SDS011;6970;51.340;3.240;2023-03-01T05:11:09;6.60;;;6.00;;
13797;SDS011;6970;51.340;3.240;2023-03-01T05:13:37;8.97;;;6.20;;
13797;SDS011;6970;51.340;3.240;2023-03-01T05:16:05;9.67;;;6.53;;
13797;SDS011;6970;51.340;3.240;2023-03-01T05:18:38;8.13;;;6.50;;
13797;SDS011;6970;51.340;3.240;2023-03-01T05:21:07;7.10;;;5.60;;
13797;SDS011;6970;51.340;3.240;2023-03-01T05:23:36;8.70;;;6.53;;
13797;SDS011;6970;51.340;3.240;2023-03-01T05:26:04;6.13;;;5.53;;
13797;SDS011;6970;51.340;3.240;2023-03-01T05:28:36;6.83;;;5.63;;
13797;SDS011;6970;51.340;3.240;2023-03-01T05:31:04;7.00;;;6.40;;
13797;SDS011;6970;51.340;3.240;2023-03-01T05:33:37;7.60;;;6.77;;
13797;SDS011;6970;51.340;3.240;2023-03-01T05:36:07;7.70;;;6.17;;
13797;SDS011;6970;51.340;3.240;2023-03-01T05:38:36;9.10;;;6.63;;
13797;SDS011;6970;51.340;3.240;2023-03-01T05:41:03;7.30;;;6.60;;
13797;SDS011;6970;51.340;3.240;2023-03-01T05:43:30;9.10;;;6.57;;
13797;SDS011;6970;51.340;3.240;2023-03-01T05:46:01;9.10;;;5.90;;
13797;SDS011;6970;51.340;3.240;2023-03-01T05:48:29;13.17;;;8.47;;
13797;SDS011;6970;51.340;3.240;2023-03-01T05:50:57;6.97;;;5.63;;
13797;SDS011;6970;51.340;3.240;2023-03-01T05:53:26;7.47;;;5.93;;
13797;SDS011;6970;51.340;3.240;2023-03-01T05:55:53;5.90;;;4.87;;
13797;SDS011;6970;51.340;3.240;2023-03-01T05:58:20;7.20;;;5.70;;
13797;SDS011;6970;51.340;3.240;2023-03-01T06:00:48;7.70;;;5.20;;
13797;SDS011;6970;51.340;3.240;2023-03-01T06:03:16;9.63;;;5.63;;
13797;SDS011;6970;51.340;3.240;2023-03-01T06:05:44;6.93;;;5.80;;
13797;SDS011;6970;51.340;3.240;2023-03-01T06:08:11;6.13;;;5.53;;
13797;SDS011;6970;51.340;3.240;2023-03-01T06:10:38;7.30;;;5.40;;
13797;SDS011;6970;51.340;3.240;2023-03-01T06:13:07;5.77;;;5.20;;
13797;SDS011;6970;51.340;3.240;2023-03-01T06:15:34;7.53;;;5.73;;
13797;SDS011;6970;51.340;3.240;2023-03-01T06:18:01;6.53;;;4.77;;
13797;SDS011;6970;51.340;3.240;2023-03-01T06:20:28;5.17;;;4.70;;
13797;SDS011;6970;51.340;3.240;2023-03-01T06:22:56;6.13;;;5.27;;
13797;SDS011;6970;51.340;3.240;2023-03-01T06:25:24;6.97;;;5.00;;
13797;SDS011;6970;51.340;3.240;2023-03-01T06:27:52;5.47;;;4.87;;
13797;SDS011;6970;51.340;3.240;2023-03-01T06:30:20;6.97;;;5.13;;
13797;SDS011;6970;51.340;3.240;2023-03-01T06:32:48;7.73;;;4.87;;
13797;SDS011;6970;51.340;3.240;2023-03-01T06:35:16;7.43;;;5.27;;
13797;SDS011;6970;51.340;3.240;2023-03-01T06:37:44;5.67;;;4.53;;
13797;SDS011;6970;51.340;3.240;2023-03-01T06:40:12;6.37;;;4.90;;
13797;SDS011;6970;51.340;3.240;2023-03-01T06:42:42;7.13;;;4.80;;
13797;SDS011;6970;51.340;3.240;2023-03-01T06:45:13;6.37;;;5.13;;
13797;SDS011;6970;51.340;3.240;2023-03-01T06:47:40;9.10;;;4.97;;
13797;SDS011;6970;51.340;3.240;2023-03-01T06:50:08;7.60;;;4.87;;
13797;SDS011;6970;51.340;3.240;2023-03-01T06:52:36;6.33;;;4.40;;
13797;SDS011;6970;51.340;3.240;2023-03-01T06:55:03;6.30;;;4.77;;
13797;SDS011;6970;51.340;3.240;2023-03-01T06:57:31;7.63;;;4.80;;
13797;SDS011;6970;51.340;3.240;2023-03-01T06:59:58;6.03;;;5.00;;
13797;SDS011;6970;51.340;3.240;2023-03-01T07:02:24;9.33;;;4.40;;
13797;SDS011;6970;51.340;3.240;2023-03-01T07:04:52;11.13;;;5.00;;
13797;SDS011;6970;51.340;3.240;2023-03-01T07:07:19;7.70;;;5.00;;
13797;SDS011;6970;51.340;3.240;2023-03-01T07:09:48;7.23;;;5.27;;
13797;SDS011;6970;51.340;3.240;2023-03-01T07:12:15;6.73;;;5.03;;
13797;SDS011;6970;51.340;3.240;2023-03-01T07:14:43;6.37;;;5.00;;
13797;SDS011;6970;51.340;3.240;2023-03-01T07:17:10;6.57;;;4.70;;
13797;SDS011;6970;51.340;3.240;2023-03-01T07:19:37;7.00;;;4.63;;
13797;SDS011;6970;51.340;3.240;2023-03-01T07:22:04;5.87;;;4.93;;
13797;SDS011;6970;51.340;3.240;2023-03-01T07:24:34;6.27;;;4.63;;
13797;SDS011;6970;51.340;3.240;2023-03-01T07:27:01;4.90;;;4.40;;
13797;SDS011;6970;51.340;3.240;2023-03-01T07:29:28;8.40;;;5.50;;
13797;SDS011;6970;51.340;3.240;2023-03-01T07:31:55;6.80;;;5.07;;
13797;SDS011;6970;51.340;3.240;2023-03-01T07:34:22;6.77;;;4.73;;
13797;SDS011;6970;51.340;3.240;2023-03-01T07:36:49;4.67;;;4.27;;
13797;SDS011;6970;51.340;3.240;2023-03-01T07:39:16;6.87;;;4.33;;
13797;SDS011;6970;51.340;3.240;2023-03-01T07:41:45;5.17;;;4.40;;
13797;SDS011;6970;51.340;3.240;2023-03-01T07:44:12;6.17;;;4.43;;
13797;SDS011;6970;51.340;3.240;2023-03-01T07:46:39;4.90;;;4.40;;
13797;SDS011;6970;51.340;3.240;2023-03-01T07:49:06;4.57;;;4.17;;
13797;SDS011;6970;51.340;3.240;2023-03-01T07:51:34;5.53;;;4.53;;
13797;SDS011;6970;51.340;3.240;2023-03-01T07:54:01;4.57;;;4.17;;
13797;SDS011;6970;51.340;3.240;2023-03-01T07:56:28;5.03;;;3.70;;
13797;SDS011;6970;51.340;3.240;2023-03-01T07:58:56;4.63;;;4.23;;
13797;SDS011;6970;51.340;3.240;2023-03-01T08:01:22;6.00;;;4.40;;
13797;SDS011;6970;51.340;3.240;2023-03-01T08:03:50;6.87;;;4.27;;
13797;SDS011;6970;51.340;3.240;2023-03-01T08:06:17;5.27;;;4.57;;
13797;SDS011;6970;51.340;3.240;2023-03-01T08:08:44;6.83;;;4.50;;
13797;SDS011;6970;51.340;3.240;2023-03-01T08:11:13;7.43;;;4.78;;
13797;SDS011;6970;51.340;3.240;2023-03-01T08:13:41;4.88;;;4.47;;
13797;SDS011;6970;51.340;3.240;2023-03-01T08:16:13;4.25;;;3.72;;
13797;SDS011;6970;51.340;3.240;2023-03-01T08:18:41;5.00;;;3.75;;
13797;SDS011;6970;51.340;3.240;2023-03-01T08:21:10;4.57;;;4.00;;
13797;SDS011;6970;51.340;3.240;2023-03-01T08:23:39;4.13;;;3.80;;
13797;SDS011;6970;51.340;3.240;2023-03-01T08:26:07;5.50;;;3.80;;
13797;SDS011;6970;51.340;3.240;2023-03-01T08:28:35;5.85;;;3.85;;
13797;SDS011;6970;51.340;3.240;2023-03-01T08:31:02;5.85;;;4.03;;
13797;SDS011;6970;51.340;3.240;2023-03-01T08:33:38;4.78;;;4.40;;
13797;SDS011;6970;51.340;3.240;2023-03-01T08:36:06;6.47;;;4.35;;
13797;SDS011;6970;51.340;3.240;2023-03-01T08:38:33;4.00;;;3.60;;
13797;SDS011;6970;51.340;3.240;2023-03-01T08:41:02;4.65;;;3.15;;
13797;SDS011;6970;51.340;3.240;2023-03-01T08:43:30;2.88;;;2.58;;
13797;SDS011;6970;51.340;3.240;2023-03-01T08:45:57;2.88;;;2.45;;
13797;SDS011;6970;51.340;3.240;2023-03-01T08:48:24;3.22;;;2.33;;
13797;SDS011;6970;51.340;3.240;2023-03-01T08:50:53;4.50;;;2.40;;
13797;SDS011;6970;51.340;3.240;2023-03-01T08:53:20;3.42;;;2.30;;
13797;SDS011;6970;51.340;3.240;2023-03-01T08:55:47;3.83;;;2.67;;
13797;SDS011;6970;51.340;3.240;2023-03-01T08:58:16;3.45;;;1.98;;
13797;SDS011;6970;51.340;3.240;2023-03-01T09:00:43;3.80;;;2.60;;
13797;SDS011;6970;51.340;3.240;2023-03-01T09:03:10;2.45;;;2.25;;
13797;SDS011;6970;51.340;3.240;2023-03-01T09:05:37;7.55;;;2.17;;
13797;SDS011;6970;51.340;3.240;2023-03-01T09:08:05;5.60;;;2.53;;
13797;SDS011;6970;51.340;3.240;2023-03-01T09:10:37;4.65;;;2.60;;
13797;SDS011;6970;51.340;3.240;2023-03-01T09:13:05;2.40;;;2.20;;
13797;SDS011;6970;51.340;3.240;2023-03-01T09:15:32;3.33;;;3.03;;
13797;SDS011;6970;51.340;3.240;2023-03-01T09:18:00;4.82;;;3.10;;
13797;SDS011;6970;51.340;3.240;2023-03-01T09:20:27;4.80;;;3.38;;
13797;SDS011;6970;51.340;3.240;2023-03-01T09:22:54;3.88;;;3.58;;
13797;SDS011;6970;51.340;3.240;2023-03-01T09:25:21;7.47;;;4.10;;
13797;SDS011;6970;51.340;3.240;2023-03-01T09:27:52;4.28;;;3.88;;
13797;SDS011;6970;51.340;3.240;2023-03-01T09:30:19;6.65;;;3.88;;
13797;SDS011;6970;51.340;3.240;2023-03-01T09:32:48;7.57;;;3.75;;
13797;SDS011;6970;51.340;3.240;2023-03-01T09:35:15;7.40;;;4.00;;
13797;SDS011;6970;51.340;3.240;2023-03-01T09:37:42;5.53;;;3.30;;
13797;SDS011;6970;51.340;3.240;2023-03-01T09:40:12;3.95;;;3.50;;
13797;SDS011;6970;51.340;3.240;2023-03-01T09:43:29;3.42;;;2.88;;
13797;SDS011;6970;51.340;3.240;2023-03-01T09:45:42;4.10;;;3.22;;
13797;SDS011;6970;51.340;3.240;2023-03-01T09:48:16;4.45;;;3.35;;
13797;SDS011;6970;51.340;3.240;2023-03-01T09:50:45;3.75;;;2.80;;
13797;SDS011;6970;51.340;3.240;2023-03-01T10:04:00;4.20;;;2.35;;
13797;SDS011;6970;51.340;3.240;2023-03-01T10:09:37;3.60;;;2.70;;
13797;SDS011;6970;51.340;3.240;2023-03-01T10:12:13;3.53;;;2.58;;
13797;SDS011;6970;51.340;3.240;2023-03-01T10:14:48;6.03;;;2.60;;
13797;SDS011;6970;51.340;3.240;2023-03-01T10:17:34;3.10;;;2.90;;
13797;SDS011;6970;51.340;3.240;2023-03-01T10:20:30;2.90;;;2.67;;
13797;SDS011;6970;51.340;3.240;2023-03-01T10:23:18;2.92;;;2.67;;
13797;SDS011;6970;51.340;3.240;2023-03-01T10:25:59;3.05;;;2.78;;
13797;SDS011;6970;51.340;3.240;2023-03-01T10:28:47;3.28;;;2.35;;
13797;SDS011;6970;51.340;3.240;2023-03-01T10:31:42;3.40;;;2.40;;
13797;SDS011;6970;51.340;3.240;2023-03-01T10:34:48;3.85;;;2.72;;
13797;SDS011;6970;51.340;3.240;2023-03-01T10:37:09;2.70;;;2.50;;
13797;SDS011;6970;51.340;3.240;2023-03-01T10:42:33;2.70;;;2.50;;
13797;SDS011;6970;51.340;3.240;2023-03-01T10:45:19;3.65;;;2.45;;
13797;SDS011;6970;51.340;3.240;2023-03-01T10:50:40;5.22;;;2.97;;
13797;SDS011;6970;51.340;3.240;2023-03-01T10:56:15;5.85;;;2.80;;
13797;SDS011;6970;51.340;3.240;2023-03-01T11:01:43;5.63;;;2.53;;
13797;SDS011;6970;51.340;3.240;2023-03-01T11:04:12;3.38;;;2.38;;
13797;SDS011;6970;51.340;3.240;2023-03-01T11:06:40;4.90;;;2.97;;
13797;SDS011;6970;51.340;3.240;2023-03-01T11:11:57;5.00;;;2.83;;
13797;SDS011;6970;51.340;3.240;2023-03-01T11:14:27;4.05;;;2.75;;
13797;SDS011;6970;51.340;3.240;2023-03-01T11:20:00;5.97;;;3.35;;
13797;SDS011;6970;51.340;3.240;2023-03-01T11:23:07;3.42;;;2.75;;
13797;SDS011;6970;51.340;3.240;2023-03-01T11:25:31;3.58;;;3.28;;
13797;SDS011;6970;51.340;3.240;2023-03-01T11:28:03;4.10;;;2.75;;
13797;SDS011;6970;51.340;3.240;2023-03-01T11:30:41;4.28;;;2.92;;
13797;SDS011;6970;51.340;3.240;2023-03-01T11:39:27;4.30;;;3.33;;
13797;SDS011;6970;51.340;3.240;2023-03-01T11:42:15;3.70;;;3.30;;
13797;SDS011;6970;51.340;3.240;2023-03-01T11:44:46;3.47;;;3.00;;
13797;SDS011;6970;51.340;3.240;2023-03-01T12:07:25;3.67;;;3.30;;
13797;SDS011;6970;51.340;3.240;2023-03-01T12:12:50;5.47;;;3.63;;
13797;SDS011;6970;51.340;3.240;2023-03-01T12:50:46;5.00;;;3.77;;
13797;SDS011;6970;51.340;3.240;2023-03-01T12:53:23;5.87;;;4.50;;
13797;SDS011;6970;51.340;3.240;2023-03-01T12:55:53;4.97;;;4.27;;
13797;SDS011;6970;51.340;3.240;2023-03-01T13:15:26;5.50;;;3.80;;
13797;SDS011;6970;51.340;3.240;2023-03-01T13:26:05;5.30;;;3.90;;
13797;SDS011;6970;51.340;3.240;2023-03-01T13:28:39;5.90;;;4.47;;
13797;SDS011;6970;51.340;3.240;2023-03-01T13:31:08;5.33;;;4.53;;
13797;SDS011;6970;51.340;3.240;2023-03-01T13:33:40;4.43;;;4.07;;
13797;SDS011;6970;51.340;3.240;2023-03-01T13:39:00;5.23;;;4.80;;
13797;SDS011;6970;51.340;3.240;2023-03-01T13:44:51;5.30;;;4.87;;
13797;SDS011;6970;51.340;3.240;2023-03-01T13:46:57;5.03;;;4.60;;
13797;SDS011;6970;51.340;3.240;2023-03-01T13:49:34;7.23;;;5.03;;
13797;SDS011;6970;51.340;3.240;2023-03-01T13:54:57;6.13;;;5.03;;
13797;SDS011;6970;51.340;3.240;2023-03-01T13:57:26;6.90;;;5.20;;
13797;SDS011;6970;51.340;3.240;2023-03-01T13:59:59;6.57;;;4.57;;
13797;SDS011;6970;51.340;3.240;2023-03-01T14:02:26;10.27;;;6.10;;
13797;SDS011;6970;51.340;3.240;2023-03-01T14:04:57;6.73;;;5.63;;
13797;SDS011;6970;51.340;3.240;2023-03-01T14:07:25;5.73;;;4.97;;
13797;SDS011;6970;51.340;3.240;2023-03-01T14:09:57;6.60;;;5.40;;
13797;SDS011;6970;51.340;3.240;2023-03-01T14:12:30;6.40;;;5.40;;
13797;SDS011;6970;51.340;3.240;2023-03-01T14:15:36;5.80;;;5.20;;
13797;SDS011;6970;51.340;3.240;2023-03-01T14:18:22;5.70;;;5.20;;
13797;SDS011;6970;51.340;3.240;2023-03-01T14:21:00;5.73;;;4.80;;
13797;SDS011;6970;51.340;3.240;2023-03-01T14:23:33;4.83;;;4.30;;
13797;SDS011;6970;51.340;3.240;2023-03-01T14:26:02;6.00;;;5.40;;
13797;SDS011;6970;51.340;3.240;2023-03-01T14:28:30;8.40;;;5.93;;
13797;SDS011;6970;51.340;3.240;2023-03-01T14:31:04;15.13;;;5.87;;
13797;SDS011;6970;51.340;3.240;2023-03-01T14:34:22;11.97;;;5.63;;
13797;SDS011;6970;51.340;3.240;2023-03-01T14:36:50;7.17;;;5.50;;
13797;SDS011;6970;51.340;3.240;2023-03-01T14:39:24;6.43;;;5.70;;
13797;SDS011;6970;51.340;3.240;2023-03-01T14:41:52;6.40;;;5.30;;
13797;SDS011;6970;51.340;3.240;2023-03-01T14:44:21;8.23;;;4.47;;
13797;SDS011;6970;51.340;3.240;2023-03-01T14:46:54;6.03;;;5.43;;
13797;SDS011;6970;51.340;3.240;2023-03-01T14:49:24;11.67;;;10.47;;
13797;SDS011;6970;51.340;3.240;2023-03-01T14:52:01;10.87;;;9.80;;
13797;SDS011;6970;51.340;3.240;2023-03-01T14:54:43;6.87;;;6.20;;
13797;SDS011;6970;51.340;3.240;2023-03-01T14:57:15;14.33;;;9.63;;
13797;SDS011;6970;51.340;3.240;2023-03-01T14:59:54;12.57;;;10.23;;
13797;SDS011;6970;51.340;3.240;2023-03-01T15:02:25;12.37;;;10.97;;
13797;SDS011;6970;51.340;3.240;2023-03-01T15:05:01;12.53;;;9.57;;
13797;SDS011;6970;51.340;3.240;2023-03-01T15:07:36;13.93;;;10.17;;
13797;SDS011;6970;51.340;3.240;2023-03-01T15:10:06;13.40;;;10.00;;
13797;SDS011;6970;51.340;3.240;2023-03-01T15:12:41;12.20;;;9.77;;
13797;SDS011;6970;51.340;3.240;2023-03-01T15:17:57;13.87;;;9.93;;
13797;SDS011;6970;51.340;3.240;2023-03-01T15:20:26;14.53;;;10.60;;
13797;SDS011;6970;51.340;3.240;2023-03-01T15:22:55;14.30;;;10.70;;
13797;SDS011;6970;51.340;3.240;2023-03-01T15:25:27;13.57;;;11.13;;
13797;SDS011;6970;51.340;3.240;2023-03-01T15:27:56;15.97;;;10.50;;
13797;SDS011;6970;51.340;3.240;2023-03-01T15:30:26;15.60;;;10.70;;
13797;SDS011;6970;51.340;3.240;2023-03-01T15:35:48;14.23;;;10.53;;
13797;SDS011;6970;51.340;3.240;2023-03-01T15:38:27;14.60;;;10.87;;
13797;SDS011;6970;51.340;3.240;2023-03-01T15:40:59;16.10;;;11.17;;
13797;SDS011;6970;51.340;3.240;2023-03-01T15:43:42;13.00;;;10.90;;
13797;SDS011;6970;51.340;3.240;2023-03-01T15:46:20;12.77;;;10.57;;
13797;SDS011;6970;51.340;3.240;2023-03-01T15:48:50;8.43;;;7.30;;
13797;SDS011;6970;51.340;3.240;2023-03-01T15:51:22;9.30;;;7.13;;
13797;SDS011;6970;51.340;3.240;2023-03-01T15:54:17;12.77;;;9.17;;
13797;SDS011;6970;51.340;3.240;2023-03-01T15:56:47;14.07;;;10.27;;
13797;SDS011;6970;51.340;3.240;2023-03-01T15:59:14;17.00;;;12.00;;
13797;SDS011;6970;51.340;3.240;2023-03-01T16:01:41;16.37;;;11.87;;
13797;SDS011;6970;51.340;3.240;2023-03-01T16:04:12;16.60;;;12.03;;
13797;SDS011;6970;51.340;3.240;2023-03-01T16:06:47;18.13;;;11.00;;
13797;SDS011;6970;51.340;3.240;2023-03-01T16:09:24;13.00;;;11.40;;
13797;SDS011;6970;51.340;3.240;2023-03-01T16:11:52;17.13;;;12.60;;
13797;SDS011;6970;51.340;3.240;2023-03-01T16:14:20;14.83;;;11.20;;
13797;SDS011;6970;51.340;3.240;2023-03-01T16:16:47;13.63;;;11.10;;
13797;SDS011;6970;51.340;3.240;2023-03-01T16:19:17;13.27;;;11.87;;
13797;SDS011;6970;51.340;3.240;2023-03-01T16:21:44;20.53;;;12.53;;
13797;SDS011;6970;51.340;3.240;2023-03-01T16:24:13;14.87;;;9.80;;
13797;SDS011;6970;51.340;3.240;2023-03-01T16:26:40;14.83;;;10.50;;
13797;SDS011;6970;51.340;3.240;2023-03-01T16:29:08;18.87;;;11.27;;
13797;SDS011;6970;51.340;3.240;2023-03-01T16:31:35;15.53;;;10.33;;
13797;SDS011;6970;51.340;3.240;2023-03-01T16:34:03;18.37;;;11.67;;
13797;SDS011;6970;51.340;3.240;2023-03-01T16:36:30;15.17;;;11.50;;
13797;SDS011;6970;51.340;3.240;2023-03-01T16:39:00;18.63;;;11.60;;
13797;SDS011;6970;51.340;3.240;2023-03-01T16:41:27;20.27;;;11.63;;
13797;SDS011;6970;51.340;3.240;2023-03-01T16:43:55;14.17;;;11.30;;
13797;SDS011;6970;51.340;3.240;2023-03-01T16:46:23;10.43;;;9.47;;
13797;SDS011;6970;51.340;3.240;2023-03-01T16:48:56;10.50;;;8.77;;
13797;SDS011;6970;51.340;3.240;2023-03-01T16:51:23;10.67;;;9.53;;
13797;SDS011;6970;51.340;3.240;2023-03-01T16:53:51;15.53;;;10.73;;
13797;SDS011;6970;51.340;3.240;2023-03-01T16:56:18;15.03;;;10.70;;
13797;SDS011;6970;51.340;3.240;2023-03-01T16:58:45;16.70;;;10.70;;
13797;SDS011;6970;51.340;3.240;2023-03-01T17:03:42;20.80;;;10.60;;
13797;SDS011;6970;51.340;3.240;2023-03-01T17:06:11;12.17;;;9.73;;
13797;SDS011;6970;51.340;3.240;2023-03-01T17:08:40;16.47;;;8.23;;
13797;SDS011;6970;51.340;3.240;2023-03-01T17:11:12;10.20;;;7.30;;
13797;SDS011;6970;51.340;3.240;2023-03-01T17:13:42;8.13;;;6.30;;
13797;SDS011;6970;51.340;3.240;2023-03-01T17:16:11;6.83;;;5.70;;
13797;SDS011;6970;51.340;3.240;2023-03-01T17:18:41;8.07;;;6.00;;
13797;SDS011;6970;51.340;3.240;2023-03-01T17:21:09;7.67;;;6.00;;
13797;SDS011;6970;51.340;3.240;2023-03-01T17:23:37;6.70;;;5.77;;
13797;SDS011;6970;51.340;3.240;2023-03-01T17:26:05;8.47;;;6.50;;
13797;SDS011;6970;51.340;3.240;2023-03-01T17:28:34;6.00;;;5.50;;
13797;SDS011;6970;51.340;3.240;2023-03-01T17:31:03;6.67;;;5.87;;
13797;SDS011;6970;51.340;3.240;2023-03-01T17:33:32;6.97;;;6.10;;
13797;SDS011;6970;51.340;3.240;2023-03-01T17:35:59;7.03;;;5.80;;
13797;SDS011;6970;51.340;3.240;2023-03-01T17:38:27;6.70;;;5.80;;
13797;SDS011;6970;51.340;3.240;2023-03-01T17:40:54;11.37;;;6.10;;
13797;SDS011;6970;51.340;3.240;2023-03-01T17:43:25;6.80;;;5.83;;
13797;SDS011;6970;51.340;3.240;2023-03-01T17:45:53;8.33;;;6.33;;
13797;SDS011;6970;51.340;3.240;2023-03-01T17:48:20;11.27;;;5.93;;
13797;SDS011;6970;51.340;3.240;2023-03-01T17:50:47;8.73;;;6.30;;